Time;durP1;ratioP1;P1;durP2;ratioP2;P2;SDS_P1;SDS_P2;PMS_P1;PMS_P2;Temp;Humidity;BMP_temperature;BMP_pressure;BME280_temperature;BME280_humidity;BME280_pressure;Samples;Min_cycle;Max_cycle;Signal;HPM_P1;HPM_P2
2022/04/14 00:01:45;;;;;;;;;;;24.00;53.40;;;;;;5073652;28;19909;-49
2022/04/14 00:04:11;;;;;;;;;;;24.00;53.40;;;;;;5068931;28;19904;-49
2022/04/14 00:06:37;;;;;;;;;;;24.00;53.40;;;;;;5067751;28;19916;-47
2022/04/14 00:09:03;;;;;;;;;;;24.00;53.40;;;;;;5067354;28;19915;-48
2022/04/14 00:11:28;;;;;;;;;;;24.00;53.30;;;;;;5063885;28;19939;-47
2022/04/14 00:13:54;;;;;;;;;;;24.00;53.30;;;;;;5064460;28;19916;-47
2022/04/14 00:16:20;;;;;;;;;;;24.00;53.20;;;;;;5065879;28;19912;-47
2022/04/14 00:18:46;;;;;;;;;;;24.00;53.20;;;;;;5062382;28;19971;-47
2022/04/14 00:21:12;;;;;;;;;;;24.00;53.10;;;;;;5072701;28;20377;-48
2022/04/14 00:23:38;;;;;;;;;;;24.00;53.00;;;;;;5067227;28;19927;-47
2022/04/14 00:26:03;;;;;;;;;;;24.00;53.00;;;;;;5077137;28;20277;-48
2022/04/14 00:28:29;;;;;;;;;;;24.00;52.90;;;;;;5063350;28;20293;-46
2022/04/14 00:30:55;;;;;;;;;;;24.00;52.90;;;;;;5081434;28;20356;-47
2022/04/14 00:33:21;;;;;;;;;;;24.00;52.80;;;;;;5083206;28;19916;-47
2022/04/14 00:35:47;;;;;;;;;;;24.00;52.80;;;;;;5084286;28;19952;-48
2022/04/14 00:38:13;;;;;;;;;;;24.00;52.80;;;;;;5070013;28;19916;-49
2022/04/14 00:40:38;;;;;;;;;;;24.00;52.70;;;;;;5044348;28;19924;-46
2022/04/14 00:43:05;;;;;;;;;;;24.00;52.70;;;;;;5044196;28;20011;-46
2022/04/14 00:45:30;;;;;;;;;;;24.00;52.70;;;;;;5043634;28;19953;-45
2022/04/14 00:47:56;;;;;;;;;;;24.00;52.60;;;;;;5046855;28;19916;-46
2022/04/14 00:50:22;;;;;;;;;;;24.00;52.60;;;;;;5056780;28;19908;-45
2022/04/14 00:52:48;;;;;;;;;;;24.00;52.50;;;;;;5062401;28;19975;-46
2022/04/14 00:55:14;;;;;;;;;;;24.00;52.50;;;;;;5059123;28;19987;-52
2022/04/14 00:57:40;;;;;;;;;;;24.00;52.60;;;;;;5061837;28;19924;-46
2022/04/14 01:00:06;;;;;;;;;;;24.00;52.90;;;;;;5067702;28;19912;-46
2022/04/14 01:02:33;;;;;;;;;;;24.00;53.40;;;;;;5061318;28;19913;-48
2022/04/14 01:04:59;;;;;;;;;;;24.00;53.50;;;;;;5060486;28;19939;-47
2022/04/14 01:07:25;;;;;;;;;;;24.00;53.80;;;;;;5046160;28;19935;-46
2022/04/14 01:09:51;;;;;;;;;;;24.00;54.20;;;;;;5067909;28;19917;-48
2022/04/14 01:12:17;;;;;;;;;;;24.00;54.70;;;;;;5057633;28;20682;-47
2022/04/14 01:14:43;;;;;;;;;;;24.00;54.80;;;;;;5043656;28;19913;-51
2022/04/14 01:17:09;;;;;;;;;;;24.00;54.80;;;;;;5058881;28;19956;-46
2022/04/14 01:19:35;;;;;;;;;;;24.00;55.00;;;;;;5054871;28;19913;-50
2022/04/14 01:22:12;;;;;;;;;;;24.00;55.70;;;;;;5047477;28;19919;-46
2022/04/14 01:24:38;;;;;;;;;;;24.00;55.30;;;;;;5068749;28;19909;-47
2022/04/14 01:27:04;;;;;;;;;;;24.00;55.40;;;;;;5061401;28;20015;-48
2022/04/14 01:29:30;;;;;;;;;;;24.00;55.30;;;;;;5053758;28;19917;-48
2022/04/14 01:31:56;;;;;;;;;;;24.00;55.20;;;;;;5059061;28;19975;-46
2022/04/14 01:34:22;;;;;;;;;;;24.00;55.10;;;;;;5060079;28;20288;-50
2022/04/14 01:36:48;;;;;;;;;;;24.00;55.10;;;;;;5059035;28;19912;-45
2022/04/14 01:39:14;;;;;;;;;;;24.00;55.20;;;;;;5052956;28;20403;-49
2022/04/14 01:41:40;;;;;;;;;;;24.10;55.20;;;;;;5058241;28;20261;-47
2022/04/14 01:44:06;;;;;;;;;;;24.00;55.30;;;;;;5060316;28;19930;-50
2022/04/14 01:46:32;;;;;;;;;;;24.10;55.50;;;;;;5055636;28;19920;-44
2022/04/14 01:49:01;;;;;;;;;;;24.10;56.00;;;;;;5058537;28;19913;-44
2022/04/14 01:51:27;;;;;;;;;;;24.10;56.30;;;;;;5061918;28;19913;-44
2022/04/14 01:53:56;;;;;;;;;;;24.10;56.20;;;;;;5071953;28;19920;-44
2022/04/14 01:56:22;;;;;;;;;;;24.10;56.10;;;;;;5062165;28;19913;-43
2022/04/14 01:58:48;;;;;;;;;;;24.10;55.80;;;;;;5066751;28;20012;-43
2022/04/14 02:01:14;;;;;;;;;;;24.10;55.60;;;;;;5077504;28;19916;-44
2022/04/14 02:03:40;;;;;;;;;;;24.10;55.50;;;;;;5084889;28;21328;-44
2022/04/14 02:06:06;;;;;;;;;;;24.10;55.30;;;;;;5091158;28;19919;-46
2022/04/14 02:08:32;;;;;;;;;;;24.10;55.10;;;;;;5090331;28;19912;-44
2022/04/14 02:10:58;;;;;;;;;;;24.10;55.00;;;;;;5094230;28;19916;-46
2022/04/14 02:13:24;;;;;;;;;;;24.10;55.60;;;;;;5087072;28;19922;-45
2022/04/14 02:15:50;;;;;;;;;;;24.10;54.90;;;;;;5092096;28;19991;-44
2022/04/14 02:18:15;;;;;;;;;;;24.10;54.80;;;;;;5088073;28;19915;-46
2022/04/14 02:20:41;;;;;;;;;;;24.10;54.80;;;;;;5092185;28;19909;-45
2022/04/14 02:23:07;;;;;;;;;;;24.10;54.70;;;;;;5091287;28;19912;-45
2022/04/14 02:25:33;;;;;;;;;;;24.10;54.60;;;;;;5085051;28;19919;-45
2022/04/14 02:27:59;;;;;;;;;;;24.10;54.60;;;;;;5087583;28;19919;-44
2022/04/14 02:30:25;;;;;;;;;;;24.10;54.60;;;;;;5090473;28;19939;-46
2022/04/14 02:32:51;;;;;;;;;;;24.10;54.40;;;;;;5087774;28;19920;-44
2022/04/14 02:35:17;;;;;;;;;;;24.10;54.40;;;;;;5087594;28;19919;-46
2022/04/14 02:37:42;;;;;;;;;;;24.10;54.40;;;;;;5086028;28;19995;-44
2022/04/14 02:40:09;;;;;;;;;;;24.10;54.40;;;;;;5089448;28;20474;-44
2022/04/14 02:42:35;;;;;;;;;;;24.10;54.40;;;;;;5095382;28;19904;-45
2022/04/14 02:45:01;;;;;;;;;;;24.10;54.30;;;;;;5088111;28;20608;-48
2022/04/14 02:47:26;;;;;;;;;;;24.10;54.30;;;;;;5089199;28;19915;-43
2022/04/14 02:49:52;;;;;;;;;;;24.10;54.40;;;;;;5091317;28;19908;-45
2022/04/14 02:52:18;;;;;;;;;;;24.10;54.30;;;;;;5093900;28;19919;-45
2022/04/14 02:54:44;;;;;;;;;;;24.10;54.30;;;;;;5089635;28;19912;-44
2022/04/14 02:57:10;;;;;;;;;;;24.10;54.40;;;;;;5086493;28;20727;-47
2022/04/14 02:59:39;;;;;;;;;;;24.10;54.40;;;;;;5095049;28;20024;-46
2022/04/14 03:02:05;;;;;;;;;;;24.10;54.40;;;;;;5089966;28;19905;-44
2022/04/14 03:04:31;;;;;;;;;;;24.10;54.40;;;;;;5092693;28;19908;-45
2022/04/14 03:06:57;;;;;;;;;;;24.10;54.30;;;;;;5093825;28;19964;-46
2022/04/14 03:09:23;;;;;;;;;;;24.10;54.30;;;;;;5094237;28;19919;-46
2022/04/14 03:11:48;;;;;;;;;;;24.10;54.20;;;;;;5091979;28;19911;-46
2022/04/14 03:14:14;;;;;;;;;;;24.10;54.10;;;;;;5091435;28;20010;-46
2022/04/14 03:16:40;;;;;;;;;;;24.10;54.10;;;;;;5091408;28;19916;-46
2022/04/14 03:19:06;;;;;;;;;;;24.10;54.00;;;;;;5091385;28;19963;-46
2022/04/14 03:21:32;;;;;;;;;;;24.10;54.00;;;;;;5094468;28;20007;-47
2022/04/14 03:23:58;;;;;;;;;;;24.10;53.90;;;;;;5093193;28;19912;-47
2022/04/14 03:26:24;;;;;;;;;;;24.10;53.80;;;;;;5080508;28;19912;-46
2022/04/14 03:28:49;;;;;;;;;;;24.10;53.80;;;;;;5077678;28;20293;-47
2022/04/14 03:31:15;;;;;;;;;;;24.10;53.70;;;;;;5076462;28;19978;-46
2022/04/14 03:33:41;;;;;;;;;;;24.10;53.70;;;;;;5080587;28;19953;-46
2022/04/14 03:36:07;;;;;;;;;;;24.10;53.60;;;;;;5080752;28;19999;-46
2022/04/14 03:38:33;;;;;;;;;;;24.10;53.60;;;;;;5078841;28;19966;-47
2022/04/14 03:41:06;;;;;;;;;;;24.10;53.50;;;;;;5080096;28;21134;-49
2022/04/14 03:43:32;;;;;;;;;;;24.00;53.50;;;;;;5077019;28;19912;-47
2022/04/14 03:45:58;;;;;;;;;;;24.00;53.40;;;;;;5078395;28;19920;-48
2022/04/14 03:48:24;;;;;;;;;;;24.00;53.40;;;;;;5079728;28;20307;-46
2022/04/14 03:50:50;;;;;;;;;;;24.00;53.40;;;;;;5078166;28;20427;-46
2022/04/14 03:53:19;;;;;;;;;;;24.00;53.40;;;;;;5078540;28;19916;-47
2022/04/14 03:55:46;;;;;;;;;;;24.00;53.40;;;;;;5076015;28;19919;-46
2022/04/14 03:58:12;;;;;;;;;;;24.00;53.30;;;;;;5073529;28;19940;-46
2022/04/14 04:00:38;;;;;;;;;;;24.00;53.30;;;;;;5059235;28;19912;-46
2022/04/14 04:03:04;;;;;;;;;;;24.00;53.30;;;;;;5073430;28;19913;-45
2022/04/14 04:05:30;;;;;;;;;;;24.00;53.30;;;;;;5073159;28;19919;-46
2022/04/14 04:07:56;;;;;;;;;;;24.00;53.30;;;;;;5074962;28;19908;-46
2022/04/14 04:10:21;;;;;;;;;;;24.00;53.30;;;;;;5076200;28;20003;-46
2022/04/14 04:12:47;;;;;;;;;;;23.90;53.20;;;;;;5074180;28;19917;-46
2022/04/14 04:15:13;;;;;;;;;;;23.90;53.20;;;;;;5073339;28;19976;-46
2022/04/14 04:17:39;;;;;;;;;;;23.90;53.20;;;;;;5076007;28;19937;-45
2022/04/14 04:20:06;;;;;;;;;;;23.90;53.20;;;;;;5076776;28;19959;-47
2022/04/14 04:22:35;;;;;;;;;;;23.90;53.20;;;;;;5074503;28;19912;-46
2022/04/14 04:25:01;;;;;;;;;;;23.90;53.10;;;;;;5075399;28;20384;-46
2022/04/14 04:27:27;;;;;;;;;;;23.90;53.10;;;;;;5068655;28;19939;-48
2022/04/14 04:29:52;;;;;;;;;;;23.90;53.10;;;;;;5072714;28;19909;-46
2022/04/14 04:32:18;;;;;;;;;;;23.90;53.10;;;;;;5072560;28;20407;-46
2022/04/14 04:34:44;;;;;;;;;;;23.80;53.10;;;;;;5072966;28;20376;-46
2022/04/14 04:37:10;;;;;;;;;;;23.80;53.10;;;;;;5067655;28;19913;-46
2022/04/14 04:39:36;;;;;;;;;;;23.80;53.00;;;;;;5068683;28;20519;-45
2022/04/14 04:42:02;;;;;;;;;;;23.80;53.00;;;;;;5073113;28;19915;-45
2022/04/14 04:44:28;;;;;;;;;;;23.80;53.10;;;;;;5073752;28;19919;-45
2022/04/14 04:46:54;;;;;;;;;;;23.80;53.10;;;;;;5069618;28;19912;-45
2022/04/14 04:49:19;;;;;;;;;;;23.80;53.10;;;;;;5073263;28;19916;-47
2022/04/14 04:51:45;;;;;;;;;;;23.80;53.10;;;;;;5072148;28;19915;-46
2022/04/14 04:54:11;;;;;;;;;;;23.80;53.10;;;;;;5069989;28;19920;-46
2022/04/14 04:56:37;;;;;;;;;;;23.80;53.00;;;;;;5071386;28;19913;-46
2022/04/14 04:59:03;;;;;;;;;;;23.70;53.00;;;;;;5074025;28;19912;-45
2022/04/14 05:01:29;;;;;;;;;;;23.70;53.60;;;;;;5073349;28;20015;-47
2022/04/14 05:03:54;;;;;;;;;;;23.70;53.00;;;;;;5080126;28;19938;-46
2022/04/14 05:06:20;;;;;;;;;;;23.70;53.00;;;;;;5066868;28;19951;-46
2022/04/14 05:08:49;;;;;;;;;;;23.70;53.00;;;;;;5086672;28;20387;-45
2022/04/14 05:11:15;;;;;;;;;;;23.70;53.00;;;;;;5082944;28;19912;-45
2022/04/14 05:13:41;;;;;;;;;;;23.70;53.00;;;;;;5081371;28;19923;-46
2022/04/14 05:16:07;;;;;;;;;;;23.70;53.00;;;;;;5082079;28;19936;-46
2022/04/14 05:18:33;;;;;;;;;;;23.70;53.00;;;;;;5070272;28;19913;-46
2022/04/14 05:20:59;;;;;;;;;;;23.70;53.00;;;;;;5069824;28;19912;-45
2022/04/14 05:23:25;;;;;;;;;;;23.60;53.00;;;;;;5073933;28;19908;-45
2022/04/14 05:25:50;;;;;;;;;;;23.60;53.00;;;;;;5068147;28;20118;-46
2022/04/14 05:28:16;;;;;;;;;;;23.60;53.00;;;;;;5084758;28;19951;-45
2022/04/14 05:30:42;;;;;;;;;;;23.60;53.00;;;;;;5084884;28;19912;-45
2022/04/14 05:33:10;;;;;;;;;;;23.60;53.00;;;;;;5083133;28;19921;-46
2022/04/14 05:35:39;;;;;;;;;;;23.60;53.50;;;;;;5069339;28;19916;-46
2022/04/14 05:38:05;;;;;;;;;;;23.60;53.00;;;;;;5075565;28;19931;-45
2022/04/14 05:40:32;;;;;;;;;;;23.60;53.00;;;;;;5077547;28;19982;-47
2022/04/14 05:42:57;;;;;;;;;;;23.60;53.00;;;;;;5066151;28;20358;-45
2022/04/14 05:45:23;;;;;;;;;;;23.60;53.00;;;;;;5076537;28;19919;-45
2022/04/14 05:47:49;;;;;;;;;;;23.50;52.90;;;;;;5076886;28;19916;-45
2022/04/14 05:50:15;;;;;;;;;;;23.50;52.90;;;;;;5069321;28;19935;-46
2022/04/14 05:52:41;;;;;;;;;;;23.50;52.90;;;;;;5068912;28;19917;-45
2022/04/14 05:55:07;;;;;;;;;;;23.50;52.90;;;;;;5075559;28;19935;-45
2022/04/14 05:57:33;;;;;;;;;;;23.50;52.90;;;;;;5068972;28;19913;-45
2022/04/14 05:59:59;;;;;;;;;;;23.50;52.90;;;;;;5076489;28;19913;-45
2022/04/14 06:02:26;;;;;;;;;;;23.50;52.90;;;;;;5072974;28;19915;-46
2022/04/14 06:04:52;;;;;;;;;;;23.50;52.90;;;;;;5072746;28;20269;-45
2022/04/14 06:07:18;;;;;;;;;;;23.50;52.90;;;;;;5069983;28;19943;-45
2022/04/14 06:09:44;;;;;;;;;;;23.50;53.00;;;;;;5077762;28;19912;-44
2022/04/14 06:12:09;;;;;;;;;;;23.40;52.90;;;;;;5076889;28;19967;-45
2022/04/14 06:14:35;;;;;;;;;;;23.40;52.90;;;;;;5083983;28;19947;-46
2022/04/14 06:17:01;;;;;;;;;;;23.40;52.90;;;;;;5065708;28;19971;-45
2022/04/14 06:19:27;;;;;;;;;;;23.40;52.90;;;;;;5072573;28;20599;-45
2022/04/14 06:21:53;;;;;;;;;;;23.40;52.90;;;;;;5073521;28;19912;-45
2022/04/14 06:24:19;;;;;;;;;;;23.40;52.90;;;;;;5080677;28;19979;-45
2022/04/14 06:26:45;;;;;;;;;;;23.40;52.90;;;;;;5075805;28;20367;-45
2022/04/14 06:29:10;;;;;;;;;;;23.30;52.90;;;;;;5078039;28;20368;-44
2022/04/14 06:31:37;;;;;;;;;;;23.30;52.90;;;;;;5079398;28;20328;-46
2022/04/14 06:34:03;;;;;;;;;;;23.30;52.90;;;;;;5080810;28;19920;-44
2022/04/14 06:36:29;;;;;;;;;;;23.30;52.90;;;;;;5077001;28;19919;-45
2022/04/14 06:38:55;;;;;;;;;;;23.30;52.90;;;;;;5078136;28;20537;-44
2022/04/14 06:41:21;;;;;;;;;;;23.30;52.90;;;;;;5083029;28;19965;-44
2022/04/14 06:43:49;;;;;;;;;;;23.30;52.90;;;;;;5082272;28;19976;-43
2022/04/14 06:46:15;;;;;;;;;;;23.30;52.90;;;;;;5066387;28;19932;-44
2022/04/14 06:48:41;;;;;;;;;;;23.30;52.90;;;;;;5092197;28;19929;-45
2022/04/14 06:51:07;;;;;;;;;;;23.20;52.90;;;;;;5085716;28;19908;-46
2022/04/14 06:53:33;;;;;;;;;;;23.20;52.90;;;;;;5076737;28;19927;-45
2022/04/14 06:55:59;;;;;;;;;;;23.20;52.90;;;;;;5080908;28;19947;-44
2022/04/14 06:58:25;;;;;;;;;;;23.20;53.50;;;;;;5081374;28;20376;-45
2022/04/14 07:00:50;;;;;;;;;;;23.20;52.90;;;;;;5076086;28;19912;-44
2022/04/14 07:03:16;;;;;;;;;;;23.20;52.90;;;;;;5071083;28;19917;-45
2022/04/14 07:05:42;;;;;;;;;;;23.20;53.00;;;;;;5099168;28;19955;-44
2022/04/14 07:08:08;;;;;;;;;;;23.20;52.90;;;;;;5074213;28;19983;-45
2022/04/14 07:10:34;;;;;;;;;;;23.20;52.90;;;;;;5080950;28;19916;-45
2022/04/14 07:13:00;;;;;;;;;;;23.20;52.90;;;;;;5083851;28;20130;-46
2022/04/14 07:15:26;;;;;;;;;;;23.10;52.90;;;;;;5075874;28;19909;-47
2022/04/14 07:17:51;;;;;;;;;;;23.10;52.90;;;;;;5087514;28;19979;-46
2022/04/14 07:20:17;;;;;;;;;;;23.10;53.00;;;;;;5072110;28;19911;-46
2022/04/14 07:22:44;;;;;;;;;;;23.10;52.90;;;;;;5072926;28;19912;-46
2022/04/14 07:25:10;;;;;;;;;;;23.10;53.00;;;;;;5071113;28;19999;-48
2022/04/14 07:27:36;;;;;;;;;;;23.10;53.00;;;;;;5082809;28;20005;-45
2022/04/14 07:30:02;;;;;;;;;;;23.10;53.00;;;;;;5079624;28;19942;-45
2022/04/14 07:32:35;;;;;;;;;;;23.10;53.00;;;;;;5075911;28;19919;-45
2022/04/14 07:35:03;;;;;;;;;;;23.10;53.00;;;;;;5070000;28;19959;-44
2022/04/14 07:37:29;;;;;;;;;;;23.10;53.00;;;;;;5082333;28;19913;-45
2022/04/14 07:39:54;;;;;;;;;;;23.00;53.00;;;;;;5075534;28;19912;-44
2022/04/14 07:42:20;;;;;;;;;;;23.00;53.00;;;;;;5080197;28;19916;-44
2022/04/14 07:44:46;;;;;;;;;;;23.00;53.00;;;;;;5075081;28;19908;-45
2022/04/14 07:47:12;;;;;;;;;;;23.00;53.00;;;;;;5084677;28;20058;-44
2022/04/14 07:49:38;;;;;;;;;;;23.00;53.00;;;;;;5074438;28;19912;-45
2022/04/14 07:52:04;;;;;;;;;;;23.00;53.00;;;;;;5092095;28;19936;-45
2022/04/14 07:54:30;;;;;;;;;;;23.00;53.00;;;;;;5069746;28;19999;-45
2022/04/14 07:56:56;;;;;;;;;;;23.00;53.00;;;;;;5070825;28;19932;-45
2022/04/14 07:59:22;;;;;;;;;;;22.90;52.90;;;;;;5070628;28;19912;-46
2022/04/14 08:01:48;;;;;;;;;;;22.90;53.00;;;;;;5069722;28;20677;-45
2022/04/14 08:04:14;;;;;;;;;;;22.90;53.00;;;;;;5069902;28;19912;-45
2022/04/14 08:06:40;;;;;;;;;;;22.90;53.00;;;;;;5069872;28;19947;-45
2022/04/14 08:09:06;;;;;;;;;;;22.90;53.00;;;;;;5071441;28;19916;-45
2022/04/14 08:11:33;;;;;;;;;;;22.90;53.10;;;;;;5070086;28;19966;-44
2022/04/14 08:13:59;;;;;;;;;;;22.90;53.10;;;;;;5067816;28;19924;-44
2022/04/14 08:16:26;;;;;;;;;;;22.80;53.00;;;;;;5070618;28;20445;-44
2022/04/14 08:18:51;;;;;;;;;;;22.80;53.10;;;;;;5069070;28;19913;-46
2022/04/14 08:21:19;;;;;;;;;;;22.80;53.10;;;;;;5066303;28;19912;-45
2022/04/14 08:23:45;;;;;;;;;;;22.80;53.00;;;;;;5068929;28;19982;-45
2022/04/14 08:26:11;;;;;;;;;;;22.80;53.10;;;;;;5076619;28;19912;-46
2022/04/14 08:28:41;;;;;;;;;;;22.80;53.10;;;;;;5075688;28;19923;-45
2022/04/14 08:31:08;;;;;;;;;;;22.80;53.10;;;;;;5077089;28;19920;-45
2022/04/14 08:33:33;;;;;;;;;;;22.80;53.10;;;;;;5090362;28;20483;-45
2022/04/14 08:35:59;;;;;;;;;;;22.80;53.20;;;;;;5074899;28;19980;-45
2022/04/14 08:38:25;;;;;;;;;;;22.80;53.10;;;;;;5070772;28;19909;-44
2022/04/14 08:40:55;;;;;;;;;;;22.80;53.20;;;;;;5079589;28;19913;-45
2022/04/14 08:43:21;;;;;;;;;;;22.80;53.20;;;;;;5078595;28;20155;-44
2022/04/14 08:45:47;;;;;;;;;;;22.70;53.10;;;;;;5074973;28;19908;-44
2022/04/14 08:48:13;;;;;;;;;;;22.70;53.10;;;;;;5079565;28;19920;-45
2022/04/14 08:50:39;;;;;;;;;;;22.70;53.70;;;;;;5064113;28;19913;-44
2022/04/14 08:53:05;;;;;;;;;;;22.70;53.20;;;;;;5080043;28;19919;-44
2022/04/14 08:55:31;;;;;;;;;;;22.70;53.20;;;;;;5073392;28;19916;-44
2022/04/14 08:57:57;;;;;;;;;;;22.70;53.20;;;;;;5074454;28;19939;-44
2022/04/14 09:00:23;;;;;;;;;;;22.70;53.20;;;;;;5075045;28;20081;-44
2022/04/14 09:02:51;;;;;;;;;;;22.70;53.30;;;;;;5071787;28;21093;-44
2022/04/14 09:05:17;;;;;;;;;;;22.70;53.30;;;;;;5070382;28;19994;-44
2022/04/14 09:07:49;;;;;;;;;;;22.60;53.30;;;;;;5072004;28;19913;-45
2022/04/14 09:10:15;;;;;;;;;;;22.70;53.40;;;;;;5073289;28;19940;-44
2022/04/14 09:12:41;;;;;;;;;;;22.60;53.30;;;;;;5071538;28;20414;-44
2022/04/14 09:15:07;;;;;;;;;;;22.60;53.30;;;;;;5071316;28;19912;-45
2022/04/14 09:17:33;;;;;;;;;;;22.60;53.40;;;;;;5073274;28;19935;-45
2022/04/14 09:19:59;;;;;;;;;;;22.60;53.40;;;;;;5072346;28;19916;-44
2022/04/14 09:22:25;;;;;;;;;;;22.60;53.40;;;;;;5072239;28;19912;-45
2022/04/14 09:24:52;;;;;;;;;;;22.60;53.40;;;;;;5071962;28;19915;-43
2022/04/14 09:27:24;;;;;;;;;;;22.60;53.40;;;;;;5075766;28;19980;-44
2022/04/14 09:29:50;;;;;;;;;;;22.60;53.50;;;;;;5070875;28;19958;-44
2022/04/14 09:32:35;;;;;;;;;;;22.60;53.50;;;;;;5077352;28;19916;-44
2022/04/14 09:35:04;;;;;;;;;;;22.50;53.50;;;;;;5065922;28;19916;-44
2022/04/14 09:37:30;;;;;;;;;;;22.60;53.50;;;;;;5070408;28;19913;-43
2022/04/14 09:40:00;;;;;;;;;;;22.50;53.50;;;;;;5064665;28;19908;-44
2022/04/14 09:42:27;;;;;;;;;;;22.50;53.50;;;;;;5063015;28;20015;-44
2022/04/14 09:44:53;;;;;;;;;;;22.50;53.50;;;;;;5075483;28;20361;-43
2022/04/14 09:47:25;;;;;;;;;;;22.50;53.50;;;;;;5074151;28;19934;-43
2022/04/14 09:49:51;;;;;;;;;;;22.50;54.10;;;;;;5092065;28;19938;-45
2022/04/14 09:52:17;;;;;;;;;;;22.50;53.60;;;;;;5079610;28;19924;-44
2022/04/14 09:54:45;;;;;;;;;;;22.50;53.60;;;;;;5075891;28;19991;-44
2022/04/14 09:57:12;;;;;;;;;;;22.50;53.60;;;;;;5083510;28;19916;-44
2022/04/14 09:59:38;;;;;;;;;;;22.50;53.70;;;;;;5081552;28;20657;-44
2022/04/14 10:02:14;;;;;;;;;;;22.50;53.70;;;;;;5080098;28;19967;-44
2022/04/14 10:04:40;;;;;;;;;;;22.50;53.70;;;;;;5083082;28;19964;-43
2022/04/14 10:07:07;;;;;;;;;;;22.40;53.60;;;;;;5077587;28;20030;-44
2022/04/14 10:09:35;;;;;;;;;;;22.50;53.70;;;;;;5070545;28;19912;-48
2022/04/14 10:12:01;;;;;;;;;;;22.50;53.70;;;;;;5084651;28;19947;-43
2022/04/14 10:14:27;;;;;;;;;;;22.40;53.70;;;;;;5069150;28;20042;-44
2022/04/14 10:16:53;;;;;;;;;;;22.40;53.70;;;;;;5067304;28;19975;-44
2022/04/14 10:19:19;;;;;;;;;;;22.40;53.70;;;;;;5089236;28;19962;-43
2022/04/14 10:21:45;;;;;;;;;;;22.40;53.70;;;;;;5067775;28;19918;-45
2022/04/14 10:24:14;;;;;;;;;;;22.40;53.80;;;;;;5071449;28;19940;-44
2022/04/14 10:26:40;;;;;;;;;;;22.40;53.80;;;;;;5075583;28;19909;-45
2022/04/14 10:29:06;;;;;;;;;;;22.40;53.80;;;;;;5076427;28;19980;-44
2022/04/14 10:31:35;;;;;;;;;;;22.40;53.80;;;;;;5074717;28;19970;-43
2022/04/14 10:34:04;;;;;;;;;;;22.40;53.90;;;;;;5069947;28;19923;-43
2022/04/14 10:36:39;;;;;;;;;;;22.40;53.90;;;;;;5077148;28;19916;-43
2022/04/14 10:39:05;;;;;;;;;;;22.40;53.90;;;;;;5065317;28;19909;-44
2022/04/14 10:41:35;;;;;;;;;;;22.40;53.90;;;;;;5071537;28;20008;-43
2022/04/14 10:44:01;;;;;;;;;;;22.40;54.00;;;;;;5075697;28;19922;-44
2022/04/14 10:46:30;;;;;;;;;;;22.40;54.00;;;;;;5071681;28;19975;-44
2022/04/14 10:49:09;;;;;;;;;;;22.40;54.00;;;;;;5089952;28;19972;-44
2022/04/14 10:51:36;;;;;;;;;;;22.40;54.00;;;;;;5061889;28;19926;-44
2022/04/14 10:54:06;;;;;;;;;;;22.40;54.10;;;;;;5076382;28;19921;-45
2022/04/14 10:56:38;;;;;;;;;;;22.30;54.00;;;;;;5070070;28;19912;-44
2022/04/14 10:59:14;;;;;;;;;;;22.30;54.00;;;;;;5074466;28;19974;-42
2022/04/14 11:01:52;;;;;;;;;;;22.30;54.10;;;;;;5075289;28;19916;-47
2022/04/14 11:04:24;;;;;;;;;;;22.30;54.10;;;;;;5067352;28;19934;-49
2022/04/14 11:06:51;;;;;;;;;;;22.30;54.20;;;;;;5076906;28;20061;-50
2022/04/14 11:09:36;;;;;;;;;;;22.30;54.30;;;;;;5079901;28;19920;-47
2022/04/14 11:12:01;;;;;;;;;;;22.30;54.60;;;;;;5071497;28;19963;-49
2022/04/14 11:14:27;;;;;;;;;;;22.30;54.60;;;;;;5076040;28;19920;-45
2022/04/14 11:16:53;;;;;;;;;;;22.30;54.60;;;;;;5080928;28;19938;-44
2022/04/14 11:19:20;;;;;;;;;;;22.30;54.50;;;;;;5088569;28;19912;-45
2022/04/14 11:22:08;;;;;;;;;;;22.30;54.50;;;;;;5091283;28;19908;-45
2022/04/14 11:24:41;;;;;;;;;;;22.30;54.40;;;;;;5091795;28;19953;-44
2022/04/14 11:27:11;;;;;;;;;;;22.20;54.30;;;;;;5105552;28;20363;-44
2022/04/14 11:29:38;;;;;;;;;;;22.20;54.20;;;;;;5090378;28;19916;-44
2022/04/14 11:32:04;;;;;;;;;;;22.20;54.20;;;;;;5103013;28;19908;-43
2022/04/14 11:34:36;;;;;;;;;;;22.20;54.20;;;;;;5105474;28;19937;-43
2022/04/14 11:37:02;;;;;;;;;;;22.20;54.10;;;;;;5105466;28;19922;-43
2022/04/14 11:39:29;;;;;;;;;;;22.20;54.10;;;;;;5085050;28;19939;-43
2022/04/14 11:42:07;;;;;;;;;;;22.20;54.20;;;;;;5088252;28;19908;-44
2022/04/14 11:44:34;;;;;;;;;;;22.20;54.10;;;;;;5105524;28;19908;-44
2022/04/14 11:47:01;;;;;;;;;;;22.20;54.10;;;;;;5086951;28;19908;-44
2022/04/14 11:49:27;;;;;;;;;;;22.20;54.00;;;;;;5105107;28;20015;-44
2022/04/14 11:51:54;;;;;;;;;;;22.20;54.10;;;;;;5105331;28;19935;-44
2022/04/14 11:54:20;;;;;;;;;;;22.20;54.00;;;;;;5075207;28;19920;-43
2022/04/14 11:56:50;;;;;;;;;;;22.20;54.00;;;;;;5084556;28;19928;-44
2022/04/14 11:59:28;;;;;;;;;;;22.20;54.00;;;;;;5071900;28;20574;-44
2022/04/14 12:01:54;;;;;;;;;;;22.20;54.00;;;;;;5064821;28;19920;-45
2022/04/14 12:04:20;;;;;;;;;;;22.10;53.90;;;;;;5079520;28;19909;-45
2022/04/14 12:06:53;;;;;;;;;;;22.10;53.90;;;;;;5064429;28;19912;-45
2022/04/14 12:09:19;;;;;;;;;;;22.10;53.90;;;;;;5049975;28;20419;-44
2022/04/14 12:11:45;;;;;;;;;;;22.10;53.90;;;;;;5044667;28;19909;-44
2022/04/14 12:14:13;;;;;;;;;;;22.10;53.90;;;;;;5045388;28;20507;-46
2022/04/14 12:16:59;;;;;;;;;;;22.10;53.90;;;;;;5082766;28;20011;-44
2022/04/14 12:19:24;;;;;;;;;;;22.10;53.90;;;;;;5083761;28;19911;-44
2022/04/14 12:22:04;;;;;;;;;;;22.10;53.90;;;;;;5066111;28;19912;-44
2022/04/14 12:24:30;;;;;;;;;;;22.10;53.90;;;;;;5077822;28;19960;-44
2022/04/14 12:26:56;;;;;;;;;;;22.10;53.90;;;;;;5064168;28;19904;-45
2022/04/14 12:29:22;;;;;;;;;;;22.10;53.90;;;;;;5067482;28;19904;-44
2022/04/14 12:31:49;;;;;;;;;;;22.10;53.90;;;;;;5063575;28;20362;-44
2022/04/14 12:34:15;;;;;;;;;;;22.00;53.80;;;;;;5063890;28;19923;-45
2022/04/14 12:36:41;;;;;;;;;;;22.00;53.80;;;;;;5064058;28;19920;-44
2022/04/14 12:39:16;;;;;;;;;;;22.00;53.80;;;;;;5051557;28;19909;-44
2022/04/14 12:41:42;;;;;;;;;;;22.00;53.90;;;;;;5043932;28;20230;-44
2022/04/14 12:44:07;;;;;;;;;;;22.00;53.90;;;;;;5044002;28;19944;-44
2022/04/14 12:46:38;;;;;;;;;;;22.00;53.90;;;;;;5043583;28;20436;-46
2022/04/14 12:49:04;;;;;;;;;;;22.00;53.90;;;;;;5043648;28;19931;-44
2022/04/14 12:51:30;;;;;;;;;;;22.00;53.80;;;;;;5048043;28;19908;-44
2022/04/14 12:53:56;;;;;;;;;;;21.90;53.80;;;;;;5081734;28;19920;-45
2022/04/14 12:56:22;;;;;;;;;;;21.90;53.90;;;;;;5104203;28;19911;-44
2022/04/14 12:59:07;;;;;;;;;;;21.90;53.80;;;;;;5081497;28;19913;-45
2022/04/14 13:01:51;;;;;;;;;;;21.90;53.80;;;;;;5102081;28;19908;-45
2022/04/14 13:04:21;;;;;;;;;;;21.90;53.90;;;;;;5103076;28;20465;-46
2022/04/14 13:06:57;;;;;;;;;;;21.90;53.80;;;;;;5084080;28;20707;-44
2022/04/14 13:09:23;;;;;;;;;;;21.90;53.90;;;;;;5068628;28;20011;-45
2022/04/14 13:11:49;;;;;;;;;;;21.90;53.90;;;;;;5063139;28;19927;-46
2022/04/14 13:14:35;;;;;;;;;;;21.90;53.90;;;;;;5063085;28;19916;-45
2022/04/14 13:17:01;;;;;;;;;;;21.90;53.90;;;;;;5020553;28;19921;-44
2022/04/14 13:19:27;;;;;;;;;;;21.90;53.90;;;;;;5020734;28;19909;-44
2022/04/14 13:21:53;;;;;;;;;;;21.90;53.90;;;;;;5020305;28;19909;-45
2022/04/14 13:24:19;;;;;;;;;;;21.90;53.90;;;;;;5013624;28;19919;-44
2022/04/14 13:26:45;;;;;;;;;;;21.80;53.80;;;;;;5060004;28;19908;-46
2022/04/14 13:29:11;;;;;;;;;;;21.80;53.80;;;;;;5041291;28;19916;-45
2022/04/14 13:31:38;;;;;;;;;;;21.80;53.80;;;;;;5040243;28;20389;-44
2022/04/14 13:34:04;;;;;;;;;;;21.80;53.80;;;;;;5039953;28;19913;-45
2022/04/14 13:36:29;;;;;;;;;;;21.80;53.80;;;;;;5040379;28;20082;-44
2022/04/14 13:38:55;;;;;;;;;;;21.80;53.80;;;;;;5039986;28;20115;-45
2022/04/14 13:41:21;;;;;;;;;;;21.80;53.80;;;;;;5039473;28;19919;-44
2022/04/14 13:43:47;;;;;;;;;;;21.80;53.80;;;;;;5040183;28;19915;-45
2022/04/14 13:46:13;;;;;;;;;;;21.80;53.80;;;;;;5042596;28;19952;-46
2022/04/14 13:48:39;;;;;;;;;;;21.80;53.80;;;;;;5040156;28;19913;-44
2022/04/14 13:51:05;;;;;;;;;;;21.80;53.80;;;;;;5039877;28;20052;-45
2022/04/14 13:53:31;;;;;;;;;;;21.80;53.80;;;;;;5046998;28;19933;-45
2022/04/14 13:55:57;;;;;;;;;;;21.80;53.80;;;;;;5103287;28;19947;-45
2022/04/14 13:58:23;;;;;;;;;;;21.70;53.80;;;;;;5094950;28;19916;-45
2022/04/14 14:00:49;;;;;;;;;;;21.70;53.80;;;;;;5118029;28;19933;-45
2022/04/14 14:03:15;;;;;;;;;;;21.70;53.80;;;;;;5123192;28;19914;-46
2022/04/14 14:05:41;;;;;;;;;;;21.70;53.80;;;;;;5121905;28;19915;-45
2022/04/14 14:08:07;;;;;;;;;;;21.70;53.80;;;;;;5098426;28;19908;-45
2022/04/14 14:10:34;;;;;;;;;;;21.70;54.30;;;;;;5082579;28;20355;-46
2022/04/14 14:13:00;;;;;;;;;;;21.70;53.80;;;;;;5081680;28;19912;-45
2022/04/14 14:15:26;;;;;;;;;;;21.70;53.80;;;;;;5082689;28;19904;-45